Stations météo

réclame
Mon MeteoGroup
Zeebrugge, Belgique (6418): Température de l'air & dewpoint: 17.09.2017 23:00:00 - 23.09.2017 23:00:00 (CEST)Zeebrugge, Belgique (6418): Vitesse du vent & gusts: 17.09.2017 23:00:00 - 23.09.2017 23:00:00 (CEST)Zeebrugge, Belgique (6418): Direction du vent: 17.09.2017 23:00:00 - 23.09.2017 23:00:00 (CEST)Zeebrugge, Belgique (6418): reduced air pressure: 17.09.2017 23:00:00 - 23.09.2017 23:00:00 (CEST)Zeebrugge, Belgique (6418): Ensoleillement: 17.09.2017 23:00:00 - 23.09.2017 23:00:00 (CEST)Zeebrugge, Belgique (6418): Quantités de précipitations: 17.09.2017 23:00:00 - 23.09.2017 23:00:00 (CEST)
Date & Time tt [°C] td [°C] ff [km/h] ff [knt] fx [km/h] fx [knt] dd ppp [hPa] sd [min] rr [mm]
23.09.2017 23:00:00 14,8 10,1 18 10 - - E 1022,3 - -
23.09.2017 22:00:00 15,7 10,6 17 9 22 12 E 1022,5 0 0,0
23.09.2017 21:00:00 15,9 10,3 17 9 21 12 E 1022,5 0 0,0
23.09.2017 20:00:00 16,3 10,7 18 10 23 13 E 1022,1 8 0,0
23.09.2017 19:00:00 16,7 11,2 18 10 27 15 NE 1021,9 39 0,0
23.09.2017 18:00:00 16,5 11,6 17 9 24 13 NNE 1022,3 60 0,0
23.09.2017 17:00:00 17,1 11,1 17 9 24 13 NNE 1022,4 60 0,0
23.09.2017 16:00:00 16,7 11,7 17 9 21 12 NNE 1023,0 60 0,0
23.09.2017 15:00:00 16,5 11,1 12 7 17 9 N 1023,4 54 0,0
23.09.2017 14:00:00 16,3 10,6 11 6 14 8 N 1023,7 33 0,0
23.09.2017 13:00:00 17,7 11,0 4 2 13 7 S 1024,1 60 0,0
23.09.2017 12:00:00 15,8 9,6 11 6 17 9 SE 1024,3 60 0,0
23.09.2017 11:00:00 15,2 10,6 10 5 15 8 SSE 1024,1 60 0,0
23.09.2017 10:00:00 13,5 10,3 10 5 14 8 SSE 1024,1 60 0,0
23.09.2017 09:00:00 12,5 9,7 11 6 14 7 SSE 1024,0 60 0,0
23.09.2017 08:00:00 12,0 9,3 11 6 14 8 S 1023,9 2 0,0
23.09.2017 07:00:00 12,4 9,2 12 7 16 9 S 1023,5 0 0,0
23.09.2017 06:00:00 12,6 9,4 13 7 16 9 S 1023,5 0 0,0
23.09.2017 05:00:00 12,5 9,5 11 6 14 7 S 1023,5 0 0,0
23.09.2017 04:00:00 12,4 9,5 9 5 16 8 S 1023,9 0 0,0
23.09.2017 03:00:00 12,8 9,9 12 6 17 9 S 1023,9 0 0,0
23.09.2017 02:00:00 12,9 10,4 11 6 13 7 S 1023,7 0 0,0
23.09.2017 01:00:00 12,9 10,4 9 5 12 7 S 1023,4 0 0,0
23.09.2017 00:00:00 13,3 10,5 8 5 11 6 SSW 1023,5 0 0,0
22.09.2017 23:00:00 14,0 10,6 7 4 10 5 SSW 1023,5 0 0,0
22.09.2017 22:00:00 14,5 10,0 0 0 5 3 N 1023,3 0 0,0
22.09.2017 21:00:00 14,6 9,9 4 2 12 6 NW 1022,8 0 0,0
22.09.2017 20:00:00 14,9 9,9 11 6 14 7 NW 1022,4 36 0,0
22.09.2017 19:00:00 16,2 10,5 10 5 14 8 NNW 1022,1 60 0,0
22.09.2017 18:00:00 16,9 10,9 12 6 18 10 NW 1021,6 60 0,0
22.09.2017 17:00:00 17,5 11,1 14 7 19 10 NW 1021,6 60 0,0
22.09.2017 16:00:00 17,9 11,8 15 8 22 12 NW 1021,5 60 0,0
22.09.2017 15:00:00 18,0 13,0 16 9 20 11 NW 1021,3 49 0,0
22.09.2017 14:00:00 17,9 13,3 16 9 22 12 NW 1021,3 38 0,0
22.09.2017 13:00:00 - - - - - - - - - -
22.09.2017 12:00:00 - - - - - - - - - -
22.09.2017 11:00:00 - - - - - - - - 40 -
22.09.2017 10:00:00 15,2 14,2 14 7 25 13 WNW 1019,8 4 0,0
22.09.2017 09:00:00 14,2 13,1 11 6 16 9 S 1019,4 4 0,0
22.09.2017 08:00:00 14,2 13,0 11 6 13 7 S 1019,1 0 0,1
22.09.2017 07:00:00 14,1 12,8 10 5 15 8 SSW 1018,8 0 0,1
22.09.2017 06:00:00 14,3 12,5 9 5 13 7 SSW 1018,8 0 0,4
22.09.2017 05:00:00 14,4 12,1 7 4 14 8 SSW 1018,7 0 0,0
22.09.2017 04:00:00 - - - - - - - - - -
22.09.2017 03:00:00 - - - - - - - - 0 -
22.09.2017 02:00:00 - - - - - - - - - -
22.09.2017 01:00:00 - - - - - - - - - -
22.09.2017 00:00:00 - - - - - - - - - -
21.09.2017 23:00:00 - - - - - - - - - -
21.09.2017 22:00:00 - - - - - - - - - -
21.09.2017 21:00:00 - - - - - - - - - -
21.09.2017 20:00:00 - - - - - - - - - -
21.09.2017 19:00:00 - - - - - - - - - -
21.09.2017 18:00:00 - - - - - - - - - -
21.09.2017 17:00:00 - - - - - - - - - -
21.09.2017 16:00:00 - - - - - - - - - -
21.09.2017 15:00:00 - - - - - - - - - -
21.09.2017 14:00:00 - - - - - - - - - -
21.09.2017 13:00:00 - - - - - - - - - -
21.09.2017 12:00:00 - - - - - - - - - -
21.09.2017 11:00:00 - - - - - - - - - -
21.09.2017 10:00:00 - - - - - - - - - -
21.09.2017 09:00:00 - - - - - - - - - -
21.09.2017 08:00:00 - - - - - - - - - -
21.09.2017 07:00:00 - - - - - - - - - -
21.09.2017 06:00:00 - - - - - - - - - -
21.09.2017 05:00:00 - - - - - - - - 0 -
21.09.2017 04:00:00 - - - - - - - - 0 -
21.09.2017 03:00:00 13,4 10,3 16 8 23 13 SSE 1018,8 0 0,0
21.09.2017 02:00:00 13,7 10,8 18 10 24 13 S 1018,9 0 0,0
21.09.2017 01:00:00 14,1 10,9 16 9 22 12 SSE 1019,1 0 0,0
21.09.2017 00:00:00 14,7 10,6 14 8 22 12 S 1019,1 0 0,0
20.09.2017 23:00:00 15,1 11,3 16 9 24 13 S 1019,1 0 0,0
20.09.2017 22:00:00 15,3 11,8 17 9 23 12 S 1019,3 0 0,0
20.09.2017 21:00:00 15,4 12,1 17 9 26 14 S 1019,4 0 0,0
20.09.2017 20:00:00 15,7 11,9 25 14 34 19 SSW 1019,2 0 0,0
20.09.2017 19:00:00 16,2 12,0 16 9 29 15 S 1019,1 5 0,0
20.09.2017 18:00:00 16,4 10,8 21 12 34 18 SSW 1019,4 9 0,0
20.09.2017 17:00:00 16,8 11,5 19 10 33 18 SSW 1019,6 16 0,0
20.09.2017 16:00:00 17,1 11,0 17 9 27 14 SSW 1019,7 13 0,0
20.09.2017 15:00:00 17,1 10,9 13 7 26 14 WSW 1019,9 21 0,0
20.09.2017 14:00:00 17,0 10,4 18 10 26 14 W 1020,1 40 0,0
20.09.2017 13:00:00 16,9 10,6 16 8 29 15 WSW 1020,4 59 0,0
20.09.2017 12:00:00 16,4 12,5 18 10 25 14 SW 1020,5 59 0,0
20.09.2017 11:00:00 13,8 11,5 19 11 25 13 SSW 1020,6 60 0,0
20.09.2017 10:00:00 12,2 10,1 17 9 24 13 SSW 1020,5 60 0,0
20.09.2017 09:00:00 10,9 9,0 16 9 24 13 SSW 1020,4 58 0,0
20.09.2017 08:00:00 10,6 8,6 18 10 24 13 SSW 1020,4 0 0,0
20.09.2017 07:00:00 10,7 8,7 16 9 24 13 SSW 1020,0 0 0,0
20.09.2017 06:00:00 11,0 9,1 17 9 22 12 SSW 1020,2 0 0,0
20.09.2017 05:00:00 11,8 9,7 17 9 22 12 SSW 1020,4 0 0,0
20.09.2017 04:00:00 12,0 9,8 16 9 27 14 SSW 1020,9 0 0,0
20.09.2017 03:00:00 12,3 9,7 19 11 25 14 SSW 1021,1 0 0,0
20.09.2017 02:00:00 12,8 9,9 18 10 24 13 SSW 1021,2 0 0,0
20.09.2017 01:00:00 14,5 9,6 11 6 16 9 SW 1021,3 0 0,0
20.09.2017 00:00:00 14,6 9,9 13 7 22 12 W 1021,4 0 0,0
19.09.2017 23:00:00 14,8 11,0 13 7 19 10 W 1021,6 0 0,0
19.09.2017 22:00:00 15,1 9,9 13 7 22 12 WNW 1021,5 0 0,0
19.09.2017 21:00:00 15,0 10,6 17 9 23 12 WNW 1021,3 0 0,0
19.09.2017 20:00:00 15,0 11,5 14 8 27 14 NW 1020,9 16 0,0
19.09.2017 19:00:00 15,1 12,1 24 13 39 21 N 1020,5 34 0,0
19.09.2017 18:00:00 16,5 10,8 18 10 26 14 NW 1020,1 42 0,0
19.09.2017 17:00:00 17,0 11,2 16 9 19 11 NW 1020,0 60 0,0
19.09.2017 16:00:00 17,6 10,6 12 7 17 9 NW 1020,0 60 0,0
19.09.2017 15:00:00 17,6 11,4 11 6 20 11 NW 1019,9 60 0,0
19.09.2017 14:00:00 15,9 11,0 14 8 20 11 N 1019,5 60 0,0
19.09.2017 13:00:00 16,2 11,8 16 8 27 15 NNW 1019,4 60 0,0
19.09.2017 12:00:00 15,9 11,8 23 13 29 15 NNW 1019,2 58 0,0
19.09.2017 11:00:00 15,2 11,4 22 12 29 16 NNW 1018,5 57 0,0
19.09.2017 10:00:00 14,8 11,2 25 13 31 17 NNW 1018,1 58 0,0
19.09.2017 09:00:00 14,1 11,3 25 13 29 15 NNW 1017,3 4 0,8
19.09.2017 08:00:00 13,5 11,1 22 12 29 16 NNW 1017,0 0 0,4
19.09.2017 07:00:00 13,3 11,0 19 10 34 18 NNW 1016,7 0 0,5
19.09.2017 06:00:00 13,7 11,1 27 14 41 22 NNW 1016,3 0 1,7
19.09.2017 05:00:00 13,0 10,5 29 16 39 21 NW 1016,3 0 0,7
19.09.2017 04:00:00 13,0 10,5 26 14 41 22 WNW 1016,1 0 7,7
19.09.2017 03:00:00 13,3 10,8 17 9 41 22 NNW 1016,2 0 4,0
19.09.2017 02:00:00 13,7 11,1 22 12 28 15 NW 1015,8 0 0,0
19.09.2017 01:00:00 13,6 10,9 22 12 39 21 NNW 1015,9 0 0,5
19.09.2017 00:00:00 14,1 11,4 24 13 34 18 NW 1015,9 0 1,0
18.09.2017 23:00:00 13,8 11,6 29 15 44 24 NNW 1016,1 0 2,4
18.09.2017 22:00:00 13,6 11,1 33 18 51 27 NNW 1015,8 0 1,5
18.09.2017 21:00:00 13,4 11,1 21 12 36 19 N 1015,5 0 5,5
18.09.2017 20:00:00 13,6 10,3 11 6 35 19 WNW 1015,1 0 0,4
18.09.2017 19:00:00 14,1 10,9 15 8 29 16 WNW 1014,7 0 0,0
18.09.2017 18:00:00 14,0 10,1 22 12 32 17 NW 1014,6 23 0,0
18.09.2017 17:00:00 14,7 10,9 16 9 27 15 WNW 1014,6 4 0,0
18.09.2017 16:00:00 14,5 11,3 14 7 22 12 WNW 1014,5 3 0,1
18.09.2017 15:00:00 13,2 10,2 13 7 37 20 W 1014,1 0 0,4
18.09.2017 14:00:00 14,4 11,1 18 10 30 16 WNW 1014,3 6 0,0
18.09.2017 13:00:00 14,6 11,3 13 7 24 13 WNW 1014,1 0 0,0
18.09.2017 12:00:00 13,4 10,7 14 7 24 13 WSW 1014,0 0 0,2
18.09.2017 11:00:00 13,7 10,7 14 8 22 12 WSW 1013,7 15 0,1
18.09.2017 10:00:00 12,8 10,2 13 7 27 15 WNW 1013,5 0 0,4
18.09.2017 09:00:00 13,0 9,8 14 7 25 13 W 1013,3 0 0,7
18.09.2017 08:00:00 13,7 9,7 14 8 22 12 W 1012,9 0 0,0
18.09.2017 07:00:00 13,5 11,2 16 9 23 12 W 1013,1 0 0,0
18.09.2017 06:00:00 12,8 10,3 9 5 12 7 S 1012,8 0 0,2
18.09.2017 05:00:00 12,5 9,9 8 4 28 15 W 1012,9 0 0,8
18.09.2017 04:00:00 13,1 11,0 9 5 27 14 W 1013,3 0 0,8
18.09.2017 03:00:00 11,9 10,5 13 7 26 14 WNW 1013,2 0 0,0
18.09.2017 02:00:00 11,9 10,3 11 6 19 10 SW 1013,1 0 0,0
18.09.2017 01:00:00 12,3 10,7 13 7 16 9 S 1013,2 0 0,0
18.09.2017 00:00:00 12,7 10,8 14 7 19 10 SSW 1013,3 0 0,4
17.09.2017 23:00:00 13,4 10,9 11 6 18 10 S 1013,2 0 0,0

tt = Température de l'air
td = dewpoint
ff = Vitesse du vent
fx = gusts
dd = Direction du vent
ppp = reduced air pressure
sd = Ensoleillement
rr = Quantités de précipitations

stations d'obs. à proximité